sensor_id;sensor_type;location;lat;lon;timestamp;pressure;altitude;pressure_sealevel;temperature
71640;BMP280;60912;48.968;10.124;2024-03-23T00:53:59;95838.66;;;8.09
71640;BMP280;60912;48.968;10.124;2024-03-23T00:56:24;95837.88;;;8.01
71640;BMP280;60912;48.968;10.124;2024-03-23T00:58:49;95828.91;;;8.01
71640;BMP280;60912;48.968;10.124;2024-03-23T01:01:15;95832.09;;;8.13
71640;BMP280;60912;48.968;10.124;2024-03-23T01:03:40;95826.47;;;8.26
71640;BMP280;60912;48.968;10.124;2024-03-23T01:06:06;95816.41;;;8.28
71640;BMP280;60912;48.968;10.124;2024-03-23T01:08:31;95815.50;;;8.26
71640;BMP280;60912;48.968;10.124;2024-03-23T01:11:01;95818.22;;;8.26
71640;BMP280;60912;48.968;10.124;2024-03-23T01:13:27;95820.63;;;8.29
71640;BMP280;60912;48.968;10.124;2024-03-23T01:15:54;95817.72;;;8.35
71640;BMP280;60912;48.968;10.124;2024-03-23T01:18:20;95820.28;;;8.33
71640;BMP280;60912;48.968;10.124;2024-03-23T01:20:46;95816.63;;;8.38
71640;BMP280;60912;48.968;10.124;2024-03-23T01:23:12;95819.16;;;8.28
71640;BMP280;60912;48.968;10.124;2024-03-23T01:25:38;95810.16;;;8.20
71640;BMP280;60912;48.968;10.124;2024-03-23T01:28:04;95805.38;;;8.13
71640;BMP280;60912;48.968;10.124;2024-03-23T01:30:29;95801.03;;;8.18
71640;BMP280;60912;48.968;10.124;2024-03-23T01:32:56;95784.91;;;8.14
71640;BMP280;60912;48.968;10.124;2024-03-23T01:35:21;95782.56;;;8.18
71640;BMP280;60912;48.968;10.124;2024-03-23T01:37:46;95773.38;;;8.08
71640;BMP280;60912;48.968;10.124;2024-03-23T01:40:12;95773.72;;;8.12
71640;BMP280;60912;48.968;10.124;2024-03-23T01:42:40;95770.84;;;8.18
71640;BMP280;60912;48.968;10.124;2024-03-23T01:45:09;95770.44;;;8.06
71640;BMP280;60912;48.968;10.124;2024-03-23T01:47:35;95764.19;;;7.98
71640;BMP280;60912;48.968;10.124;2024-03-23T01:50:01;95760.47;;;7.88
71640;BMP280;60912;48.968;10.124;2024-03-23T01:52:26;95760.13;;;7.91
71640;BMP280;60912;48.968;10.124;2024-03-23T01:54:52;95759.78;;;7.95
71640;BMP280;60912;48.968;10.124;2024-03-23T01:57:18;95752.63;;;7.99
71640;BMP280;60912;48.968;10.124;2024-03-23T01:59:45;95753.38;;;8.00
71640;BMP280;60912;48.968;10.124;2024-03-23T02:02:10;95740.94;;;7.99
71640;BMP280;60912;48.968;10.124;2024-03-23T02:04:36;95739.66;;;8.00
71640;BMP280;60912;48.968;10.124;2024-03-23T02:07:01;95736.91;;;8.00
71640;BMP280;60912;48.968;10.124;2024-03-23T02:09:26;95731.44;;;7.92
71640;BMP280;60912;48.968;10.124;2024-03-23T02:11:52;95726.88;;;7.95
71640;BMP280;60912;48.968;10.124;2024-03-23T02:14:17;95719.38;;;8.03
71640;BMP280;60912;48.968;10.124;2024-03-23T02:16:43;95718.50;;;8.08
71640;BMP280;60912;48.968;10.124;2024-03-23T02:19:08;95715.59;;;8.21
71640;BMP280;60912;48.968;10.124;2024-03-23T02:21:33;95713.41;;;8.27
71640;BMP280;60912;48.968;10.124;2024-03-23T02:23:59;95711.03;;;8.31
71640;BMP280;60912;48.968;10.124;2024-03-23T02:26:25;95704.25;;;8.32
71640;BMP280;60912;48.968;10.124;2024-03-23T02:28:50;95698.59;;;8.30
71640;BMP280;60912;48.968;10.124;2024-03-23T02:31:16;95688.31;;;8.16
71640;BMP280;60912;48.968;10.124;2024-03-23T02:33:41;95684.44;;;8.11
71640;BMP280;60912;48.968;10.124;2024-03-23T02:36:07;95683.72;;;8.10
71640;BMP280;60912;48.968;10.124;2024-03-23T02:38:32;95687.38;;;8.13
71640;BMP280;60912;48.968;10.124;2024-03-23T02:41:05;95685.19;;;8.04
71640;BMP280;60912;48.968;10.124;2024-03-23T02:43:30;95684.06;;;7.99
71640;BMP280;60912;48.968;10.124;2024-03-23T02:45:56;95678.63;;;8.07
71640;BMP280;60912;48.968;10.124;2024-03-23T02:48:21;95665.28;;;8.19
71640;BMP280;60912;48.968;10.124;2024-03-23T02:50:47;95661.63;;;8.16
71640;BMP280;60912;48.968;10.124;2024-03-23T02:53:12;95656.28;;;8.10
71640;BMP280;60912;48.968;10.124;2024-03-23T02:55:37;95654.44;;;7.98
71640;BMP280;60912;48.968;10.124;2024-03-23T02:58:03;95656.63;;;7.99
71640;BMP280;60912;48.968;10.124;2024-03-23T03:00:28;95644.03;;;8.04
71640;BMP280;60912;48.968;10.124;2024-03-23T03:02:54;95642.00;;;8.12
71640;BMP280;60912;48.968;10.124;2024-03-23T03:05:19;95653.72;;;8.13
71640;BMP280;60912;48.968;10.124;2024-03-23T03:07:45;95654.28;;;8.03
71640;BMP280;60912;48.968;10.124;2024-03-23T03:10:10;95640.94;;;8.07
71640;BMP280;60912;48.968;10.124;2024-03-23T03:12:37;95635.06;;;8.11
71640;BMP280;60912;48.968;10.124;2024-03-23T03:15:06;95644.59;;;8.25
71640;BMP280;60912;48.968;10.124;2024-03-23T03:17:31;95641.66;;;8.23
71640;BMP280;60912;48.968;10.124;2024-03-23T03:19:56;95635.84;;;8.19
71640;BMP280;60912;48.968;10.124;2024-03-23T03:22:22;95633.97;;;8.14
71640;BMP280;60912;48.968;10.124;2024-03-23T03:24:47;95634.16;;;8.16
71640;BMP280;60912;48.968;10.124;2024-03-23T03:27:13;95623.38;;;8.18
71640;BMP280;60912;48.968;10.124;2024-03-23T03:29:38;95622.66;;;8.18
71640;BMP280;60912;48.968;10.124;2024-03-23T03:32:04;95617.50;;;8.14
71640;BMP280;60912;48.968;10.124;2024-03-23T03:34:29;95613.47;;;8.23
71640;BMP280;60912;48.968;10.124;2024-03-23T03:36:55;95615.69;;;8.24
71640;BMP280;60912;48.968;10.124;2024-03-23T03:39:20;95610.94;;;8.32
71640;BMP280;60912;48.968;10.124;2024-03-23T03:41:47;95607.25;;;8.37
71640;BMP280;60912;48.968;10.124;2024-03-23T03:44:13;95596.66;;;8.41
71640;BMP280;60912;48.968;10.124;2024-03-23T03:46:38;95593.00;;;8.31
71640;BMP280;60912;48.968;10.124;2024-03-23T03:49:03;95592.81;;;8.22
71640;BMP280;60912;48.968;10.124;2024-03-23T03:51:29;95587.50;;;8.01
71640;BMP280;60912;48.968;10.124;2024-03-23T03:53:54;95595.75;;;7.93
71640;BMP280;60912;48.968;10.124;2024-03-23T03:56:19;95583.09;;;7.90
71640;BMP280;60912;48.968;10.124;2024-03-23T03:58:49;95578.16;;;7.74
71640;BMP280;60912;48.968;10.124;2024-03-23T04:01:15;95585.28;;;7.69
71640;BMP280;60912;48.968;10.124;2024-03-23T04:03:40;95574.84;;;7.67
71640;BMP280;60912;48.968;10.124;2024-03-23T04:06:12;95582.16;;;7.57
71640;BMP280;60912;48.968;10.124;2024-03-23T04:08:37;95567.31;;;7.45
71640;BMP280;60912;48.968;10.124;2024-03-23T04:11:03;95566.75;;;7.47
71640;BMP280;60912;48.968;10.124;2024-03-23T04:13:28;95567.47;;;7.32
71640;BMP280;60912;48.968;10.124;2024-03-23T04:15:54;95563.09;;;7.29
71640;BMP280;60912;48.968;10.124;2024-03-23T04:18:20;95568.72;;;7.31
71640;BMP280;60912;48.968;10.124;2024-03-23T04:20:46;95559.94;;;7.25
71640;BMP280;60912;48.968;10.124;2024-03-23T04:23:12;95561.63;;;7.28
71640;BMP280;60912;48.968;10.124;2024-03-23T04:25:37;95565.47;;;7.33
71640;BMP280;60912;48.968;10.124;2024-03-23T04:28:02;95559.41;;;7.34
71640;BMP280;60912;48.968;10.124;2024-03-23T04:30:28;95553.22;;;7.34
71640;BMP280;60912;48.968;10.124;2024-03-23T04:32:54;95558.72;;;7.41
71640;BMP280;60912;48.968;10.124;2024-03-23T04:35:19;95549.97;;;7.43
71640;BMP280;60912;48.968;10.124;2024-03-23T04:37:47;95544.28;;;7.48
71640;BMP280;60912;48.968;10.124;2024-03-23T04:40:12;95526.91;;;7.38
71640;BMP280;60912;48.968;10.124;2024-03-23T04:42:38;95519.97;;;7.30
71640;BMP280;60912;48.968;10.124;2024-03-23T04:45:04;95511.34;;;7.18
71640;BMP280;60912;48.968;10.124;2024-03-23T04:47:31;95501.31;;;7.28
71640;BMP280;60912;48.968;10.124;2024-03-23T04:49:56;95505.16;;;7.33
71640;BMP280;60912;48.968;10.124;2024-03-23T04:52:22;95508.06;;;7.35
71640;BMP280;60912;48.968;10.124;2024-03-23T04:54:47;95499.13;;;7.26
71640;BMP280;60912;48.968;10.124;2024-03-23T04:57:13;95479.59;;;7.30
71640;BMP280;60912;48.968;10.124;2024-03-23T04:59:38;95493.50;;;7.40
71640;BMP280;60912;48.968;10.124;2024-03-23T05:02:03;95486.94;;;7.50
71640;BMP280;60912;48.968;10.124;2024-03-23T05:04:29;95483.47;;;7.57
71640;BMP280;60912;48.968;10.124;2024-03-23T05:06:54;95471.59;;;7.62
71640;BMP280;60912;48.968;10.124;2024-03-23T05:09:20;95466.09;;;7.62
71640;BMP280;60912;48.968;10.124;2024-03-23T05:11:45;95454.06;;;7.65
71640;BMP280;60912;48.968;10.124;2024-03-23T05:14:14;95453.13;;;7.71
71640;BMP280;60912;48.968;10.124;2024-03-23T05:16:42;95459.31;;;7.79
71640;BMP280;60912;48.968;10.124;2024-03-23T05:19:08;95461.88;;;7.92
71640;BMP280;60912;48.968;10.124;2024-03-23T05:21:33;95494.38;;;8.10
71640;BMP280;60912;48.968;10.124;2024-03-23T05:23:58;95518.72;;;8.29
71640;BMP280;60912;48.968;10.124;2024-03-23T05:26:24;95528.19;;;8.59
71640;BMP280;60912;48.968;10.124;2024-03-23T05:28:49;95507.53;;;8.98
71640;BMP280;60912;48.968;10.124;2024-03-23T05:31:30;95513.19;;;9.32
71640;BMP280;60912;48.968;10.124;2024-03-23T05:33:56;95520.50;;;9.62
71640;BMP280;60912;48.968;10.124;2024-03-23T05:36:21;95531.81;;;9.91
71640;BMP280;60912;48.968;10.124;2024-03-23T05:38:47;95525.06;;;10.09
71640;BMP280;60912;48.968;10.124;2024-03-23T05:41:13;95533.91;;;10.07
71640;BMP280;60912;48.968;10.124;2024-03-23T05:43:38;95531.63;;;10.13
71640;BMP280;60912;48.968;10.124;2024-03-23T05:46:04;95529.38;;;10.19
71640;BMP280;60912;48.968;10.124;2024-03-23T05:48:30;95521.59;;;10.26
71640;BMP280;60912;48.968;10.124;2024-03-23T05:50:56;95525.75;;;10.34
71640;BMP280;60912;48.968;10.124;2024-03-23T05:53:23;95526.47;;;10.35
71640;BMP280;60912;48.968;10.124;2024-03-23T05:55:49;95545.75;;;10.35
71640;BMP280;60912;48.968;10.124;2024-03-23T05:58:16;95550.94;;;10.31
71640;BMP280;60912;48.968;10.124;2024-03-23T06:00:43;95558.84;;;10.27
71640;BMP280;60912;48.968;10.124;2024-03-23T06:03:09;95575.81;;;10.23
71640;BMP280;60912;48.968;10.124;2024-03-23T06:05:35;95575.25;;;10.25
71640;BMP280;60912;48.968;10.124;2024-03-23T06:08:00;95573.44;;;10.19
71640;BMP280;60912;48.968;10.124;2024-03-23T06:10:25;95572.31;;;10.23
71640;BMP280;60912;48.968;10.124;2024-03-23T06:12:51;95578.59;;;10.15
71640;BMP280;60912;48.968;10.124;2024-03-23T06:15:18;95573.06;;;10.23
71640;BMP280;60912;48.968;10.124;2024-03-23T06:17:44;95582.84;;;10.34
71640;BMP280;60912;48.968;10.124;2024-03-23T06:20:09;95578.47;;;10.31
71640;BMP280;60912;48.968;10.124;2024-03-23T06:22:35;95579.59;;;10.28
71640;BMP280;60912;48.968;10.124;2024-03-23T06:25:01;95573.91;;;10.26
71640;BMP280;60912;48.968;10.124;2024-03-23T06:27:26;95580.88;;;10.27
71640;BMP280;60912;48.968;10.124;2024-03-23T06:29:51;95587.38;;;10.21
71640;BMP280;60912;48.968;10.124;2024-03-23T06:32:17;95584.84;;;10.16
71640;BMP280;60912;48.968;10.124;2024-03-23T06:34:43;95583.28;;;10.05
71640;BMP280;60912;48.968;10.124;2024-03-23T06:37:09;95577.16;;;10.14
71640;BMP280;60912;48.968;10.124;2024-03-23T06:39:37;95586.25;;;10.25
71640;BMP280;60912;48.968;10.124;2024-03-23T06:42:03;95591.34;;;10.28
71640;BMP280;60912;48.968;10.124;2024-03-23T06:44:29;95597.41;;;10.27
71640;BMP280;60912;48.968;10.124;2024-03-23T06:46:55;95600.31;;;10.11
71640;BMP280;60912;48.968;10.124;2024-03-23T06:49:20;95608.78;;;10.06
71640;BMP280;60912;48.968;10.124;2024-03-23T06:51:46;95609.13;;;10.10
71640;BMP280;60912;48.968;10.124;2024-03-23T06:54:12;95628.16;;;10.15
71640;BMP280;60912;48.968;10.124;2024-03-23T06:56:37;95628.84;;;9.99
71640;BMP280;60912;48.968;10.124;2024-03-23T06:59:03;95644.38;;;10.04
71640;BMP280;60912;48.968;10.124;2024-03-23T07:01:28;95637.66;;;9.97
71640;BMP280;60912;48.968;10.124;2024-03-23T07:03:54;95635.66;;;9.98
71640;BMP280;60912;48.968;10.124;2024-03-23T07:06:19;95636.50;;;10.00
71640;BMP280;60912;48.968;10.124;2024-03-23T07:08:45;95650.00;;;10.13
71640;BMP280;60912;48.968;10.124;2024-03-23T07:11:10;95646.41;;;10.28
71640;BMP280;60912;48.968;10.124;2024-03-23T07:13:36;95661.41;;;10.35
71640;BMP280;60912;48.968;10.124;2024-03-23T07:16:01;95663.66;;;10.29
71640;BMP280;60912;48.968;10.124;2024-03-23T07:18:27;95681.09;;;10.31
71640;BMP280;60912;48.968;10.124;2024-03-23T07:20:53;95677.13;;;10.25
71640;BMP280;60912;48.968;10.124;2024-03-23T07:23:19;95689.13;;;10.12
71640;BMP280;60912;48.968;10.124;2024-03-23T07:25:44;95669.78;;;10.19
71640;BMP280;60912;48.968;10.124;2024-03-23T07:28:09;95665.75;;;10.20
71640;BMP280;60912;48.968;10.124;2024-03-23T07:30:35;95665.97;;;10.15
71640;BMP280;60912;48.968;10.124;2024-03-23T07:33:00;95678.44;;;10.16
71640;BMP280;60912;48.968;10.124;2024-03-23T07:35:26;95670.28;;;10.26
71640;BMP280;60912;48.968;10.124;2024-03-23T07:37:51;95665.19;;;10.22
71640;BMP280;60912;48.968;10.124;2024-03-23T07:40:16;95666.53;;;10.13
71640;BMP280;60912;48.968;10.124;2024-03-23T07:42:42;95674.00;;;10.20
71640;BMP280;60912;48.968;10.124;2024-03-23T07:45:08;95689.78;;;10.20
71640;BMP280;60912;48.968;10.124;2024-03-23T07:47:34;95683.63;;;10.37
71640;BMP280;60912;48.968;10.124;2024-03-23T07:50:00;95682.63;;;10.49
71640;BMP280;60912;48.968;10.124;2024-03-23T07:52:28;95687.97;;;10.64
71640;BMP280;60912;48.968;10.124;2024-03-23T07:54:54;95686.22;;;10.52
71640;BMP280;60912;48.968;10.124;2024-03-23T07:57:19;95691.72;;;10.52
71640;BMP280;60912;48.968;10.124;2024-03-23T07:59:45;95699.16;;;10.49
71640;BMP280;60912;48.968;10.124;2024-03-23T08:02:10;95702.91;;;10.79
71640;BMP280;60912;48.968;10.124;2024-03-23T08:04:36;95711.06;;;11.11
71640;BMP280;60912;48.968;10.124;2024-03-23T08:07:02;95734.72;;;11.31
71640;BMP280;60912;48.968;10.124;2024-03-23T08:09:27;95759.56;;;10.72
71640;BMP280;60912;48.968;10.124;2024-03-23T08:11:52;95777.84;;;10.28
71640;BMP280;60912;48.968;10.124;2024-03-23T08:14:18;95766.38;;;9.66
71640;BMP280;60912;48.968;10.124;2024-03-23T08:16:44;95777.66;;;9.46
71640;BMP280;60912;48.968;10.124;2024-03-23T08:19:14;95764.94;;;9.58
71640;BMP280;60912;48.968;10.124;2024-03-23T08:21:39;95776.47;;;9.71
71640;BMP280;60912;48.968;10.124;2024-03-23T08:24:05;95811.09;;;9.82
71640;BMP280;60912;48.968;10.124;2024-03-23T08:26:31;95815.72;;;9.72
71640;BMP280;60912;48.968;10.124;2024-03-23T08:28:56;95821.94;;;9.65
71640;BMP280;60912;48.968;10.124;2024-03-23T08:31:22;95830.59;;;9.54
71640;BMP280;60912;48.968;10.124;2024-03-23T08:33:48;95828.06;;;9.25
71640;BMP280;60912;48.968;10.124;2024-03-23T08:36:13;95835.03;;;9.19
71640;BMP280;60912;48.968;10.124;2024-03-23T08:38:39;95835.56;;;9.02
71640;BMP280;60912;48.968;10.124;2024-03-23T08:41:06;95839.44;;;9.14
71640;BMP280;60912;48.968;10.124;2024-03-23T08:43:35;95857.41;;;9.08
71640;BMP280;60912;48.968;10.124;2024-03-23T08:46:14;95856.13;;;9.16
71640;BMP280;60912;48.968;10.124;2024-03-23T08:48:44;95858.88;;;9.16
71640;BMP280;60912;48.968;10.124;2024-03-23T08:51:11;95860.69;;;9.06
71640;BMP280;60912;48.968;10.124;2024-03-23T08:53:37;95869.69;;;9.07
71640;BMP280;60912;48.968;10.124;2024-03-23T08:56:04;95880.88;;;9.09
71640;BMP280;60912;48.968;10.124;2024-03-23T08:58:31;95890.56;;;9.32
71640;BMP280;60912;48.968;10.124;2024-03-23T09:01:02;95886.34;;;9.39
71640;BMP280;60912;48.968;10.124;2024-03-23T09:03:28;95898.78;;;9.70
71640;BMP280;60912;48.968;10.124;2024-03-23T09:05:54;95910.88;;;9.83
71640;BMP280;60912;48.968;10.124;2024-03-23T09:08:20;95922.63;;;9.68
71640;BMP280;60912;48.968;10.124;2024-03-23T09:10:47;95929.41;;;9.67
71640;BMP280;60912;48.968;10.124;2024-03-23T09:13:12;95935.09;;;9.69
71640;BMP280;60912;48.968;10.124;2024-03-23T09:15:51;95933.63;;;9.75
71640;BMP280;60912;48.968;10.124;2024-03-23T09:18:21;95937.28;;;9.78
71640;BMP280;60912;48.968;10.124;2024-03-23T09:20:46;95934.16;;;9.89
71640;BMP280;60912;48.968;10.124;2024-03-23T09:23:12;95957.44;;;10.03
71640;BMP280;60912;48.968;10.124;2024-03-23T09:25:38;95969.34;;;10.21
71640;BMP280;60912;48.968;10.124;2024-03-23T09:28:04;95967.31;;;10.21
71640;BMP280;60912;48.968;10.124;2024-03-23T09:30:30;95964.88;;;10.26
71640;BMP280;60912;48.968;10.124;2024-03-23T09:32:55;95970.97;;;10.32
71640;BMP280;60912;48.968;10.124;2024-03-23T09:35:21;95978.66;;;10.41
71640;BMP280;60912;48.968;10.124;2024-03-23T09:37:46;95981.16;;;10.54
71640;BMP280;60912;48.968;10.124;2024-03-23T09:40:11;95967.28;;;10.77
71640;BMP280;60912;48.968;10.124;2024-03-23T09:42:37;95972.16;;;10.93
71640;BMP280;60912;48.968;10.124;2024-03-23T09:45:05;95962.75;;;11.04
71640;BMP280;60912;48.968;10.124;2024-03-23T09:47:32;95955.50;;;10.84
71640;BMP280;60912;48.968;10.124;2024-03-23T09:50:00;95961.13;;;10.93
71640;BMP280;60912;48.968;10.124;2024-03-23T09:52:26;95972.38;;;11.20
71640;BMP280;60912;48.968;10.124;2024-03-23T09:54:51;95973.69;;;11.44
71640;BMP280;60912;48.968;10.124;2024-03-23T09:57:17;95977.69;;;12.10
71640;BMP280;60912;48.968;10.124;2024-03-23T09:59:42;95964.38;;;12.16
71640;BMP280;60912;48.968;10.124;2024-03-23T10:02:08;95971.94;;;12.50
71640;BMP280;60912;48.968;10.124;2024-03-23T10:04:39;95971.44;;;12.43
71640;BMP280;60912;48.968;10.124;2024-03-23T10:07:19;95974.94;;;12.44
71640;BMP280;60912;48.968;10.124;2024-03-23T10:09:45;95969.00;;;12.30
71640;BMP280;60912;48.968;10.124;2024-03-23T10:12:13;95969.84;;;12.67
71640;BMP280;60912;48.968;10.124;2024-03-23T10:14:40;95956.38;;;12.81
71640;BMP280;60912;48.968;10.124;2024-03-23T10:17:19;95967.13;;;12.33
71640;BMP280;60912;48.968;10.124;2024-03-23T10:19:49;95984.13;;;11.70
71640;BMP280;60912;48.968;10.124;2024-03-23T10:24:42;95996.00;;;11.31
71640;BMP280;60912;48.968;10.124;2024-03-23T10:27:08;96000.84;;;10.90
71640;BMP280;60912;48.968;10.124;2024-03-23T10:29:33;95999.72;;;10.53
71640;BMP280;60912;48.968;10.124;2024-03-23T10:32:12;96000.31;;;10.37
71640;BMP280;60912;48.968;10.124;2024-03-23T10:34:38;96005.44;;;10.48
71640;BMP280;60912;48.968;10.124;2024-03-23T10:37:04;95988.81;;;10.15
71640;BMP280;60912;48.968;10.124;2024-03-23T10:39:32;95995.56;;;10.30
71640;BMP280;60912;48.968;10.124;2024-03-23T10:42:01;95974.97;;;10.46
71640;BMP280;60912;48.968;10.124;2024-03-23T10:44:28;95977.19;;;10.40
71640;BMP280;60912;48.968;10.124;2024-03-23T10:46:55;95977.81;;;10.63
71640;BMP280;60912;48.968;10.124;2024-03-23T10:49:26;95968.53;;;10.83
71640;BMP280;60912;48.968;10.124;2024-03-23T10:51:52;95976.72;;;11.31
71640;BMP280;60912;48.968;10.124;2024-03-23T10:54:18;95981.00;;;11.91
71640;BMP280;60912;48.968;10.124;2024-03-23T10:56:45;95970.72;;;12.26
71640;BMP280;60912;48.968;10.124;2024-03-23T10:59:12;95977.03;;;12.19
71640;BMP280;60912;48.968;10.124;2024-03-23T11:01:57;95983.41;;;11.70
71640;BMP280;60912;48.968;10.124;2024-03-23T11:04:38;95987.75;;;11.31
71640;BMP280;60912;48.968;10.124;2024-03-23T11:09:53;95980.84;;;11.15
71640;BMP280;60912;48.968;10.124;2024-03-23T11:17:22;95980.38;;;12.00
71640;BMP280;60912;48.968;10.124;2024-03-23T11:20:01;95961.38;;;12.65
71640;BMP280;60912;48.968;10.124;2024-03-23T11:22:46;95962.00;;;12.64
71640;BMP280;60912;48.968;10.124;2024-03-23T11:27:47;95982.31;;;12.07
71640;BMP280;60912;48.968;10.124;2024-03-23T11:32:47;95982.94;;;11.81
71640;BMP280;60912;48.968;10.124;2024-03-23T11:40:26;95993.78;;;11.62
71640;BMP280;60912;48.968;10.124;2024-03-23T11:42:56;95996.47;;;11.69
71640;BMP280;60912;48.968;10.124;2024-03-23T11:45:21;96004.69;;;11.52
71640;BMP280;60912;48.968;10.124;2024-03-23T11:47:46;96003.84;;;11.42
71640;BMP280;60912;48.968;10.124;2024-03-23T11:50:19;96012.97;;;11.52
71640;BMP280;60912;48.968;10.124;2024-03-23T11:52:44;96006.94;;;11.46
71640;BMP280;60912;48.968;10.124;2024-03-23T11:55:10;96028.06;;;11.51
71640;BMP280;60912;48.968;10.124;2024-03-23T11:57:36;96019.34;;;11.62
71640;BMP280;60912;48.968;10.124;2024-03-23T12:00:01;96027.69;;;11.54
71640;BMP280;60912;48.968;10.124;2024-03-23T12:02:27;96026.00;;;11.27
71640;BMP280;60912;48.968;10.124;2024-03-23T12:04:52;96050.81;;;10.94
71640;BMP280;60912;48.968;10.124;2024-03-23T12:07:20;96072.28;;;10.41
71640;BMP280;60912;48.968;10.124;2024-03-23T12:10:02;96067.19;;;9.84
71640;BMP280;60912;48.968;10.124;2024-03-23T12:12:28;96073.06;;;9.73
71640;BMP280;60912;48.968;10.124;2024-03-23T12:15:04;96049.91;;;9.76
71640;BMP280;60912;48.968;10.124;2024-03-23T12:17:31;96040.19;;;9.67
71640;BMP280;60912;48.968;10.124;2024-03-23T12:19:56;96029.72;;;9.66
71640;BMP280;60912;48.968;10.124;2024-03-23T12:22:23;96033.41;;;10.06
71640;BMP280;60912;48.968;10.124;2024-03-23T12:24:49;96029.63;;;10.64
71640;BMP280;60912;48.968;10.124;2024-03-23T12:27:14;96026.66;;;10.70
71640;BMP280;60912;48.968;10.124;2024-03-23T12:29:40;96023.25;;;10.94
71640;BMP280;60912;48.968;10.124;2024-03-23T12:32:06;96020.84;;;11.31
71640;BMP280;60912;48.968;10.124;2024-03-23T12:34:32;96012.88;;;11.10
71640;BMP280;60912;48.968;10.124;2024-03-23T12:36:58;96008.66;;;10.69
71640;BMP280;60912;48.968;10.124;2024-03-23T12:39:23;96013.22;;;10.74
71640;BMP280;60912;48.968;10.124;2024-03-23T12:41:50;96010.72;;;11.01
71640;BMP280;60912;48.968;10.124;2024-03-23T12:44:17;96019.13;;;11.43
71640;BMP280;60912;48.968;10.124;2024-03-23T12:46:42;96009.16;;;11.72
71640;BMP280;60912;48.968;10.124;2024-03-23T12:49:07;96003.63;;;11.72
71640;BMP280;60912;48.968;10.124;2024-03-23T12:51:33;96008.97;;;11.70
71640;BMP280;60912;48.968;10.124;2024-03-23T12:53:59;96011.91;;;11.72
71640;BMP280;60912;48.968;10.124;2024-03-23T12:56:25;96021.19;;;11.84
71640;BMP280;60912;48.968;10.124;2024-03-23T12:58:50;96031.75;;;11.95
71640;BMP280;60912;48.968;10.124;2024-03-23T13:01:17;96034.13;;;11.25
71640;BMP280;60912;48.968;10.124;2024-03-23T13:03:42;96031.78;;;11.21
71640;BMP280;60912;48.968;10.124;2024-03-23T13:06:10;96032.81;;;10.93
71640;BMP280;60912;48.968;10.124;2024-03-23T13:08:35;96033.19;;;10.90
71640;BMP280;60912;48.968;10.124;2024-03-23T13:11:01;96020.50;;;10.47
71640;BMP280;60912;48.968;10.124;2024-03-23T13:13:27;96019.16;;;10.63
71640;BMP280;60912;48.968;10.124;2024-03-23T13:15:52;96023.72;;;10.68
71640;BMP280;60912;48.968;10.124;2024-03-23T13:18:18;96018.59;;;10.72
71640;BMP280;60912;48.968;10.124;2024-03-23T13:20:44;96018.59;;;10.72
71640;BMP280;60912;48.968;10.124;2024-03-23T13:23:09;96021.44;;;10.89
71640;BMP280;60912;48.968;10.124;2024-03-23T13:25:34;96011.69;;;10.88
71640;BMP280;60912;48.968;10.124;2024-03-23T13:28:01;96024.25;;;10.82
71640;BMP280;60912;48.968;10.124;2024-03-23T13:30:26;96013.69;;;10.95
71640;BMP280;60912;48.968;10.124;2024-03-23T13:32:51;96007.66;;;11.22
71640;BMP280;60912;48.968;10.124;2024-03-23T13:35:17;96006.72;;;10.94
71640;BMP280;60912;48.968;10.124;2024-03-23T13:37:43;95997.81;;;11.11
71640;BMP280;60912;48.968;10.124;2024-03-23T13:40:08;96000.78;;;11.05
71640;BMP280;60912;48.968;10.124;2024-03-23T13:42:34;95996.88;;;11.41
71640;BMP280;60912;48.968;10.124;2024-03-23T13:45:00;95989.41;;;11.34
71640;BMP280;60912;48.968;10.124;2024-03-23T13:47:25;95985.16;;;11.33
71640;BMP280;60912;48.968;10.124;2024-03-23T13:49:50;95967.88;;;11.57
71640;BMP280;60912;48.968;10.124;2024-03-23T13:52:16;95964.47;;;11.49
71640;BMP280;60912;48.968;10.124;2024-03-23T13:54:43;95957.66;;;11.50
71640;BMP280;60912;48.968;10.124;2024-03-23T13:57:11;95954.03;;;11.40
71640;BMP280;60912;48.968;10.124;2024-03-23T13:59:37;95951.94;;;11.23
71640;BMP280;60912;48.968;10.124;2024-03-23T14:02:02;95944.81;;;11.20
71640;BMP280;60912;48.968;10.124;2024-03-23T14:04:28;95959.38;;;11.38
71640;BMP280;60912;48.968;10.124;2024-03-23T14:06:53;95950.38;;;11.62
71640;BMP280;60912;48.968;10.124;2024-03-23T14:09:19;95943.13;;;11.49
71640;BMP280;60912;48.968;10.124;2024-03-23T14:11:48;95944.91;;;11.05
71640;BMP280;60912;48.968;10.124;2024-03-23T14:14:13;95929.72;;;11.21
71640;BMP280;60912;48.968;10.124;2024-03-23T14:16:42;95919.53;;;11.31
71640;BMP280;60912;48.968;10.124;2024-03-23T14:19:08;95920.63;;;11.53
71640;BMP280;60912;48.968;10.124;2024-03-23T14:21:33;95916.53;;;11.37
71640;BMP280;60912;48.968;10.124;2024-03-23T14:24:02;95915.22;;;11.21
71640;BMP280;60912;48.968;10.124;2024-03-23T14:26:28;95913.81;;;11.12
71640;BMP280;60912;48.968;10.124;2024-03-23T14:28:53;95904.22;;;11.38
71640;BMP280;60912;48.968;10.124;2024-03-23T14:31:22;95900.53;;;11.77
71640;BMP280;60912;48.968;10.124;2024-03-23T14:33:51;95895.09;;;11.28
71640;BMP280;60912;48.968;10.124;2024-03-23T14:36:17;95899.28;;;11.12
71640;BMP280;60912;48.968;10.124;2024-03-23T14:38:52;95880.03;;;11.29
71640;BMP280;60912;48.968;10.124;2024-03-23T14:41:26;95897.06;;;11.35
71640;BMP280;60912;48.968;10.124;2024-03-23T14:43:51;95901.84;;;11.34
71640;BMP280;60912;48.968;10.124;2024-03-23T14:46:25;95934.44;;;10.71
71640;BMP280;60912;48.968;10.124;2024-03-23T14:48:53;95952.53;;;9.87
71640;BMP280;60912;48.968;10.124;2024-03-23T14:51:19;95973.63;;;9.46
71640;BMP280;60912;48.968;10.124;2024-03-23T14:53:47;96000.25;;;8.92
71640;BMP280;60912;48.968;10.124;2024-03-23T14:56:13;96024.81;;;8.26
71640;BMP280;60912;48.968;10.124;2024-03-23T14:58:41;96010.66;;;7.65
71640;BMP280;60912;48.968;10.124;2024-03-23T15:01:08;95994.56;;;7.49
71640;BMP280;60912;48.968;10.124;2024-03-23T15:03:35;96002.53;;;7.39
71640;BMP280;60912;48.968;10.124;2024-03-23T15:06:01;96000.91;;;7.23
71640;BMP280;60912;48.968;10.124;2024-03-23T15:08:27;95993.94;;;7.22
71640;BMP280;60912;48.968;10.124;2024-03-23T15:10:53;95989.31;;;7.30